Time;durP1;ratioP1;P1;durP2;ratioP2;P2;SDS_P1;SDS_P2;PMS_P1;PMS_P2;Temp;Humidity;BMP_temperature;BMP_pressure;BME280_temperature;BME280_humidity;BME280_pressure;Samples;Min_cycle;Max_cycle;Signal;HPM_P1;HPM_P2
2022/06/09 00:00:50;;;;;;;0.97;0.87;;;;;;;;;;5110230;28;20452;-72
2022/06/09 00:03:19;;;;;;;1.10;0.90;;;;;;;;;;5110448;28;20451;-72
2022/06/09 00:05:47;;;;;;;1.03;0.70;;;;;;;;;;5107666;27;20440;-72
2022/06/09 00:08:14;;;;;;;0.93;0.63;;;;;;;;;;5111182;28;20452;-73
2022/06/09 00:10:43;;;;;;;1.10;0.83;;;;;;;;;;5110407;28;20475;-71
2022/06/09 00:13:10;;;;;;;1.17;0.90;;;;;;;;;;5110951;28;20521;-72
2022/06/09 00:15:37;;;;;;;1.33;0.90;;;;;;;;;;5110980;28;20449;-71
2022/06/09 00:18:06;;;;;;;0.90;0.63;;;;;;;;;;5110639;28;20470;-71
2022/06/09 00:20:33;;;;;;;1.00;0.67;;;;;;;;;;5110863;28;20474;-72
2022/06/09 00:23:00;;;;;;;1.03;0.70;;;;;;;;;;5110173;28;20452;-71
2022/06/09 00:25:27;;;;;;;0.93;0.70;;;;;;;;;;5109399;28;20444;-72
2022/06/09 00:27:55;;;;;;;1.90;0.73;;;;;;;;;;5110677;28;20451;-72
2022/06/09 00:30:22;;;;;;;2.37;0.80;;;;;;;;;;5110459;28;20483;-72
2022/06/09 00:32:49;;;;;;;1.00;0.80;;;;;;;;;;5110557;28;20436;-71
2022/06/09 00:35:17;;;;;;;1.30;0.80;;;;;;;;;;5110668;28;20455;-72
2022/06/09 00:37:44;;;;;;;1.77;0.70;;;;;;;;;;5110551;28;20549;-71
2022/06/09 00:40:13;;;;;;;1.10;0.83;;;;;;;;;;5110466;28;20456;-72
2022/06/09 00:42:40;;;;;;;0.90;0.60;;;;;;;;;;5111292;28;20456;-73
2022/06/09 00:45:24;;;;;;;1.00;0.70;;;;;;;;;;5099690;28;20459;-72
2022/06/09 00:47:52;;;;;;;1.17;0.60;;;;;;;;;;5109789;28;20533;-73
2022/06/09 00:50:21;;;;;;;0.70;0.53;;;;;;;;;;5110491;28;20478;-72
2022/06/09 00:52:51;;;;;;;1.30;0.80;;;;;;;;;;5101949;28;20935;-72
2022/06/09 00:55:20;;;;;;;1.10;0.60;;;;;;;;;;5110786;28;20538;-72
2022/06/09 00:57:49;;;;;;;1.40;0.87;;;;;;;;;;5109995;28;20458;-72
2022/06/09 01:00:18;;;;;;;1.17;0.80;;;;;;;;;;5103490;28;20458;-72
2022/06/09 01:02:47;;;;;;;1.20;0.77;;;;;;;;;;5108008;28;20503;-72
2022/06/09 01:05:14;;;;;;;1.10;0.60;;;;;;;;;;5105794;28;20454;-72
2022/06/09 01:07:45;;;;;;;1.53;0.63;;;;;;;;;;5109517;28;20444;-72
2022/06/09 01:10:13;;;;;;;1.00;0.70;;;;;;;;;;5110461;28;20478;-72
2022/06/09 01:12:41;;;;;;;0.83;0.50;;;;;;;;;;5110815;28;20491;-72
2022/06/09 01:15:11;;;;;;;0.80;0.53;;;;;;;;;;5109608;28;20943;-72
2022/06/09 01:17:47;;;;;;;0.90;0.67;;;;;;;;;;5107606;28;20942;-72
2022/06/09 01:20:22;;;;;;;0.90;0.80;;;;;;;;;;5110289;28;20451;-72
2022/06/09 01:23:12;;;;;;;0.80;0.53;;;;;;;;;;5110247;28;20525;-72
2022/06/09 01:25:52;;;;;;;0.70;0.50;;;;;;;;;;5094580;28;20494;-72
2022/06/09 01:28:34;;;;;;;1.03;0.70;;;;;;;;;;5109752;28;20919;-72
2022/06/09 01:31:06;;;;;;;0.70;0.50;;;;;;;;;;5109961;28;20472;-72
2022/06/09 01:33:38;;;;;;;0.70;0.50;;;;;;;;;;5110932;28;20548;-73
2022/06/09 01:36:07;;;;;;;0.90;0.80;;;;;;;;;;5110462;28;20960;-73
2022/06/09 01:38:44;;;;;;;2.00;0.63;;;;;;;;;;5113524;28;20447;-72
2022/06/09 01:41:12;;;;;;;3.87;0.67;;;;;;;;;;5114621;28;20583;-72
2022/06/09 01:43:39;;;;;;;0.70;0.50;;;;;;;;;;5113655;28;20458;-73
2022/06/09 01:46:09;;;;;;;1.00;0.50;;;;;;;;;;5113263;28;20443;-74
2022/06/09 01:48:36;;;;;;;0.80;0.60;;;;;;;;;;5113404;27;20442;-74
2022/06/09 01:51:07;;;;;;;0.93;0.60;;;;;;;;;;5113146;28;21445;-74
2022/06/09 01:53:37;;;;;;;2.53;0.80;;;;;;;;;;5113925;28;20471;-74
2022/06/09 01:56:07;;;;;;;1.00;0.60;;;;;;;;;;5106372;28;20763;-73
2022/06/09 01:58:38;;;;;;;1.20;0.80;;;;;;;;;;5112952;28;20496;-73
2022/06/09 02:01:06;;;;;;;0.80;0.50;;;;;;;;;;5112467;28;20454;-73
2022/06/09 02:03:36;;;;;;;0.80;0.53;;;;;;;;;;5110802;28;20451;-73
2022/06/09 02:06:05;;;;;;;1.13;0.60;;;;;;;;;;5111735;28;20811;-73
2022/06/09 02:08:35;;;;;;;1.90;0.73;;;;;;;;;;5112952;28;20812;-73
2022/06/09 02:11:06;;;;;;;0.73;0.60;;;;;;;;;;5112594;28;20532;-73
2022/06/09 02:13:35;;;;;;;1.30;0.70;;;;;;;;;;5112888;28;20961;-74
2022/06/09 02:16:04;;;;;;;2.00;0.60;;;;;;;;;;5112560;28;20448;-74
2022/06/09 02:18:32;;;;;;;0.97;0.70;;;;;;;;;;5112299;28;20967;-74
2022/06/09 02:21:03;;;;;;;1.30;0.60;;;;;;;;;;5111959;28;20458;-73
2022/06/09 02:23:31;;;;;;;1.17;0.77;;;;;;;;;;5113004;28;20906;-73
2022/06/09 02:25:58;;;;;;;1.10;0.60;;;;;;;;;;5111977;28;20474;-73
2022/06/09 02:28:25;;;;;;;0.80;0.70;;;;;;;;;;5112691;28;20491;-73
2022/06/09 02:30:53;;;;;;;2.00;1.10;;;;;;;;;;5112121;28;20478;-73
2022/06/09 02:33:20;;;;;;;1.10;0.60;;;;;;;;;;5113122;28;20452;-73
2022/06/09 02:35:48;;;;;;;1.67;0.87;;;;;;;;;;5110942;28;20452;-73
2022/06/09 02:38:16;;;;;;;1.57;0.70;;;;;;;;;;5111985;28;20448;-72
2022/06/09 02:40:43;;;;;;;1.00;0.80;;;;;;;;;;5103632;28;20455;-73
2022/06/09 02:43:11;;;;;;;1.70;0.90;;;;;;;;;;5112723;28;20455;-72
2022/06/09 02:45:38;;;;;;;1.40;0.90;;;;;;;;;;5112879;28;20459;-73
2022/06/09 02:48:06;;;;;;;1.43;0.63;;;;;;;;;;5111432;28;20530;-73
2022/06/09 02:50:33;;;;;;;0.87;0.70;;;;;;;;;;5112411;28;20468;-73
2022/06/09 02:53:01;;;;;;;2.43;1.07;;;;;;;;;;5111797;28;20444;-73
2022/06/09 02:55:29;;;;;;;1.43;0.80;;;;;;;;;;5112402;28;20444;-73
2022/06/09 02:57:56;;;;;;;0.90;0.77;;;;;;;;;;5112322;28;20443;-72
2022/06/09 03:00:24;;;;;;;7.23;0.90;;;;;;;;;;5103973;28;20456;-73
2022/06/09 03:02:53;;;;;;;1.37;1.03;;;;;;;;;;5112144;28;20452;-72
2022/06/09 03:05:20;;;;;;;1.03;0.83;;;;;;;;;;5112416;28;20450;-73
2022/06/09 03:07:47;;;;;;;1.73;0.80;;;;;;;;;;5112163;28;20521;-72
2022/06/09 03:10:15;;;;;;;1.07;0.83;;;;;;;;;;5111569;28;20478;-73
2022/06/09 03:12:43;;;;;;;1.87;0.80;;;;;;;;;;5111974;28;20963;-73
2022/06/09 03:15:12;;;;;;;3.37;0.83;;;;;;;;;;5112471;28;20459;-72
2022/06/09 03:17:39;;;;;;;1.60;0.90;;;;;;;;;;5112432;28;20807;-73
2022/06/09 03:20:08;;;;;;;1.73;0.97;;;;;;;;;;5110883;28;20451;-72
2022/06/09 03:22:35;;;;;;;1.30;1.00;;;;;;;;;;5112160;28;20531;-73
2022/06/09 03:25:02;;;;;;;1.10;0.90;;;;;;;;;;5111553;28;20467;-73
2022/06/09 03:27:30;;;;;;;1.00;0.70;;;;;;;;;;5111801;28;21002;-73
2022/06/09 03:29:59;;;;;;;3.20;1.00;;;;;;;;;;5110480;28;20462;-72
2022/06/09 03:32:26;;;;;;;1.50;1.00;;;;;;;;;;5110659;28;20543;-73
2022/06/09 03:34:53;;;;;;;0.90;0.70;;;;;;;;;;5110788;28;20535;-72
2022/06/09 03:37:20;;;;;;;1.00;0.70;;;;;;;;;;5111755;28;20448;-73
2022/06/09 03:39:47;;;;;;;0.80;0.50;;;;;;;;;;5110618;28;20470;-73
2022/06/09 03:42:14;;;;;;;1.10;0.67;;;;;;;;;;5111554;28;20951;-73
2022/06/09 03:44:41;;;;;;;2.40;0.83;;;;;;;;;;5111788;28;20456;-73
2022/06/09 03:47:10;;;;;;;1.70;0.73;;;;;;;;;;5111149;28;20450;-73
2022/06/09 03:49:38;;;;;;;0.90;0.67;;;;;;;;;;5111456;28;20440;-73
2022/06/09 03:52:05;;;;;;;1.13;0.90;;;;;;;;;;5110879;28;20855;-73
2022/06/09 03:54:32;;;;;;;1.00;0.80;;;;;;;;;;5111153;28;20452;-74
2022/06/09 03:56:59;;;;;;;2.17;1.23;;;;;;;;;;5110192;28;20456;-72
2022/06/09 03:59:26;;;;;;;0.90;0.70;;;;;;;;;;5109967;28;20927;-71
2022/06/09 04:01:53;;;;;;;1.40;0.90;;;;;;;;;;5109719;28;20775;-72
2022/06/09 04:04:22;;;;;;;1.00;0.90;;;;;;;;;;5111738;28;20444;-72
2022/06/09 04:06:49;;;;;;;1.00;0.73;;;;;;;;;;5099934;28;20443;-72
2022/06/09 04:09:17;;;;;;;1.37;0.70;;;;;;;;;;5109693;28;20443;-72
2022/06/09 04:11:44;;;;;;;1.37;0.83;;;;;;;;;;5107546;28;20478;-75
2022/06/09 04:14:11;;;;;;;1.10;0.80;;;;;;;;;;5111447;28;20489;-70
2022/06/09 04:16:40;;;;;;;1.00;0.90;;;;;;;;;;5111872;28;20451;-71
2022/06/09 04:19:09;;;;;;;1.60;0.93;;;;;;;;;;5104294;28;20445;-73
2022/06/09 04:21:38;;;;;;;1.73;1.03;;;;;;;;;;5111454;28;20481;-71
2022/06/09 04:24:05;;;;;;;2.00;1.23;;;;;;;;;;5097625;28;20459;-73
2022/06/09 04:26:34;;;;;;;2.73;1.10;;;;;;;;;;5111340;28;20575;-74
2022/06/09 04:29:01;;;;;;;1.90;1.10;;;;;;;;;;5110356;28;20512;-71
2022/06/09 04:31:28;;;;;;;2.20;1.10;;;;;;;;;;5110977;28;20824;-73
2022/06/09 04:33:55;;;;;;;5.80;3.30;;;;;;;;;;5110377;28;20543;-71
2022/06/09 04:36:22;;;;;;;1.03;0.93;;;;;;;;;;5111339;28;20461;-75
2022/06/09 04:38:51;;;;;;;1.17;0.93;;;;;;;;;;5110464;28;20444;-74
2022/06/09 04:41:18;;;;;;;6.40;1.10;;;;;;;;;;5109317;28;20443;-71
2022/06/09 04:43:47;;;;;;;1.73;0.90;;;;;;;;;;5110498;28;20467;-70
2022/06/09 04:46:15;;;;;;;1.70;1.37;;;;;;;;;;5111269;28;20456;-71
2022/06/09 04:48:42;;;;;;;2.20;1.20;;;;;;;;;;5111023;28;20542;-69
2022/06/09 04:51:11;;;;;;;1.33;0.90;;;;;;;;;;5109899;28;20483;-70
2022/06/09 04:53:38;;;;;;;1.40;1.30;;;;;;;;;;5111254;28;20475;-70
2022/06/09 04:56:08;;;;;;;0.80;0.67;;;;;;;;;;5110428;28;20471;-69
2022/06/09 04:58:38;;;;;;;2.13;1.10;;;;;;;;;;5111063;28;20483;-70
2022/06/09 05:01:06;;;;;;;1.67;1.00;;;;;;;;;;5109604;28;20509;-70
2022/06/09 05:03:34;;;;;;;2.30;0.90;;;;;;;;;;5111189;28;20440;-69
2022/06/09 05:06:01;;;;;;;3.10;1.10;;;;;;;;;;5110154;28;20935;-70
2022/06/09 05:08:28;;;;;;;1.77;1.63;;;;;;;;;;5111619;28;20443;-70
2022/06/09 05:10:55;;;;;;;1.43;1.20;;;;;;;;;;5113636;28;20483;-70
2022/06/09 05:13:24;;;;;;;1.57;0.93;;;;;;;;;;5115063;28;20447;-69
2022/06/09 05:15:51;;;;;;;1.47;1.00;;;;;;;;;;5114072;28;20930;-70
2022/06/09 05:18:19;;;;;;;1.00;0.90;;;;;;;;;;5114916;28;20455;-70
2022/06/09 05:20:46;;;;;;;1.43;0.93;;;;;;;;;;5113869;28;20436;-70
2022/06/09 05:23:13;;;;;;;1.73;1.13;;;;;;;;;;5114659;28;20891;-70
2022/06/09 05:25:41;;;;;;;4.97;1.63;;;;;;;;;;5101221;28;20473;-69
2022/06/09 05:28:08;;;;;;;1.17;0.90;;;;;;;;;;5114284;28;20458;-70
2022/06/09 05:30:36;;;;;;;4.20;1.50;;;;;;;;;;5113743;28;20455;-70
2022/06/09 05:33:04;;;;;;;4.37;1.07;;;;;;;;;;5114018;28;20464;-70
2022/06/09 05:35:31;;;;;;;1.60;1.50;;;;;;;;;;5114562;28;20440;-70
2022/06/09 05:46:15;;;;;;;1.97;1.07;;;;;;;;;;5114168;28;20431;-69
2022/06/09 05:48:42;;;;;;;1.10;0.90;;;;;;;;;;5114335;27;20446;-69
2022/06/09 05:51:09;;;;;;;1.60;1.20;;;;;;;;;;5114237;28;20488;-70
2022/06/09 05:53:37;;;;;;;0.83;0.70;;;;;;;;;;5114330;28;20458;-69
2022/06/09 05:56:04;;;;;;;4.43;0.93;;;;;;;;;;5113585;28;20848;-70
2022/06/09 05:58:31;;;;;;;1.13;1.03;;;;;;;;;;5114201;28;20443;-70
2022/06/09 06:00:58;;;;;;;1.63;1.10;;;;;;;;;;5112915;28;20795;-70
2022/06/09 06:03:27;;;;;;;1.97;1.10;;;;;;;;;;5113994;28;20452;-69
2022/06/09 06:08:39;;;;;;;0.87;0.80;;;;;;;;;;5113820;28;20567;-70
2022/06/09 06:11:07;;;;;;;0.90;0.80;;;;;;;;;;5112552;28;20485;-70
2022/06/09 06:13:34;;;;;;;0.90;0.80;;;;;;;;;;5113453;28;20545;-70
2022/06/09 06:16:01;;;;;;;1.83;0.80;;;;;;;;;;5113136;28;20452;-69
2022/06/09 06:18:30;;;;;;;0.83;0.80;;;;;;;;;;5113590;28;20452;-70
2022/06/09 06:20:57;;;;;;;1.40;0.80;;;;;;;;;;5112389;28;20791;-69
2022/06/09 06:23:24;;;;;;;1.00;0.90;;;;;;;;;;5113612;28;20459;-70
2022/06/09 06:25:53;;;;;;;1.00;0.80;;;;;;;;;;5112727;28;20478;-69
2022/06/09 06:28:20;;;;;;;1.40;1.10;;;;;;;;;;5113576;28;20436;-69
2022/06/09 06:30:47;;;;;;;1.70;1.30;;;;;;;;;;5112140;28;21037;-70
2022/06/09 06:33:14;;;;;;;1.20;0.90;;;;;;;;;;5113298;28;20451;-70
2022/06/09 06:35:43;;;;;;;2.13;1.07;;;;;;;;;;5113196;28;20551;-69
2022/06/09 06:38:10;;;;;;;0.80;0.70;;;;;;;;;;5113507;28;20448;-70
2022/06/09 06:40:38;;;;;;;1.50;1.00;;;;;;;;;;5112978;28;20462;-69
2022/06/09 06:43:05;;;;;;;2.03;0.90;;;;;;;;;;5112304;28;20458;-70
2022/06/09 06:45:32;;;;;;;1.10;0.90;;;;;;;;;;5112686;28;20446;-69
2022/06/09 06:47:59;;;;;;;1.30;1.00;;;;;;;;;;5112559;28;20453;-70
2022/06/09 06:50:27;;;;;;;1.43;0.87;;;;;;;;;;5112668;28;20728;-69
2022/06/09 06:52:55;;;;;;;1.00;0.80;;;;;;;;;;5112421;28;20483;-70
2022/06/09 06:55:23;;;;;;;1.53;0.70;;;;;;;;;;5113017;28;20439;-69
2022/06/09 06:57:50;;;;;;;1.10;0.80;;;;;;;;;;5112095;28;20447;-70
2022/06/09 07:00:19;;;;;;;1.93;0.87;;;;;;;;;;5112449;28;20446;-70
2022/06/09 07:02:47;;;;;;;1.23;1.13;;;;;;;;;;5112314;28;20516;-70
2022/06/09 07:05:14;;;;;;;0.80;0.60;;;;;;;;;;5112746;28;20454;-70
2022/06/09 07:07:41;;;;;;;1.43;0.90;;;;;;;;;;5112553;28;20443;-69
2022/06/09 07:10:11;;;;;;;1.00;0.90;;;;;;;;;;5112490;28;20444;-69
2022/06/09 07:12:38;;;;;;;1.67;1.33;;;;;;;;;;5112536;28;20479;-70
2022/06/09 07:15:06;;;;;;;0.80;0.70;;;;;;;;;;5111524;28;20931;-70
2022/06/09 07:17:33;;;;;;;2.07;1.30;;;;;;;;;;5112228;28;20455;-69
2022/06/09 07:20:01;;;;;;;1.07;0.80;;;;;;;;;;5111612;28;20964;-70
2022/06/09 07:22:28;;;;;;;1.53;1.10;;;;;;;;;;5111887;28;20798;-70
2022/06/09 07:24:56;;;;;;;1.37;0.83;;;;;;;;;;5111893;28;20873;-69
2022/06/09 07:27:25;;;;;;;1.10;0.60;;;;;;;;;;5112412;28;20487;-69
2022/06/09 07:29:52;;;;;;;2.07;1.10;;;;;;;;;;5111689;28;20465;-70
2022/06/09 07:32:20;;;;;;;0.80;0.70;;;;;;;;;;5110874;28;21011;-69
2022/06/09 07:34:47;;;;;;;1.03;0.70;;;;;;;;;;5111589;28;20442;-69
2022/06/09 07:37:14;;;;;;;2.13;0.90;;;;;;;;;;5112069;28;20444;-70
2022/06/09 07:39:41;;;;;;;1.00;0.70;;;;;;;;;;5112228;28;20452;-69
2022/06/09 07:42:09;;;;;;;1.33;0.90;;;;;;;;;;5111187;28;20463;-70
2022/06/09 07:44:37;;;;;;;2.57;0.80;;;;;;;;;;5111952;28;20448;-69
2022/06/09 07:47:06;;;;;;;3.60;1.00;;;;;;;;;;5111434;28;20477;-70
2022/06/09 07:49:34;;;;;;;2.00;0.80;;;;;;;;;;5111924;28;20452;-69
2022/06/09 07:52:01;;;;;;;1.80;0.80;;;;;;;;;;5111027;28;20536;-69
2022/06/09 07:54:28;;;;;;;2.83;0.80;;;;;;;;;;5111903;28;20439;-69
2022/06/09 07:56:55;;;;;;;1.37;0.77;;;;;;;;;;5111419;28;20458;-70
2022/06/09 07:59:22;;;;;;;2.93;0.80;;;;;;;;;;5111816;28;20478;-69
2022/06/09 08:01:51;;;;;;;4.23;1.07;;;;;;;;;;5110750;28;20479;-70
2022/06/09 08:04:18;;;;;;;2.77;1.00;;;;;;;;;;5111648;28;20782;-70
2022/06/09 08:06:46;;;;;;;2.37;0.83;;;;;;;;;;5111234;28;20443;-70
2022/06/09 08:09:13;;;;;;;2.07;1.00;;;;;;;;;;5111651;28;20446;-70
2022/06/09 08:11:40;;;;;;;1.53;0.77;;;;;;;;;;5110991;28;20480;-70
2022/06/09 08:14:09;;;;;;;3.07;0.73;;;;;;;;;;5111092;28;20536;-70
2022/06/09 08:16:37;;;;;;;1.10;0.50;;;;;;;;;;5111588;28;20526;-69
2022/06/09 08:19:06;;;;;;;4.20;0.80;;;;;;;;;;5111028;28;20857;-69
2022/06/09 08:21:33;;;;;;;1.57;0.70;;;;;;;;;;5111271;28;20440;-70
2022/06/09 08:24:00;;;;;;;1.40;0.70;;;;;;;;;;5111018;28;20449;-69
2022/06/09 08:26:28;;;;;;;1.90;0.90;;;;;;;;;;5111266;28;20486;-70
2022/06/09 08:28:56;;;;;;;1.37;0.87;;;;;;;;;;5110616;28;20444;-70
2022/06/09 08:31:23;;;;;;;1.70;0.73;;;;;;;;;;5110972;28;20497;-69
2022/06/09 08:33:50;;;;;;;2.37;0.70;;;;;;;;;;5111088;28;20510;-70
2022/06/09 08:36:19;;;;;;;4.70;0.80;;;;;;;;;;5111093;28;20931;-70
2022/06/09 08:38:46;;;;;;;1.03;0.73;;;;;;;;;;5110883;28;20452;-70
2022/06/09 08:41:27;;;;;;;5.33;1.13;;;;;;;;;;5111136;28;20509;-69
2022/06/09 08:43:58;;;;;;;7.37;0.83;;;;;;;;;;5114102;28;20454;-70
2022/06/09 08:46:31;;;;;;;3.03;0.77;;;;;;;;;;5115510;28;20446;-69
2022/06/09 08:49:02;;;;;;;1.90;0.73;;;;;;;;;;5115127;28;20435;-70
2022/06/09 08:51:34;;;;;;;1.43;1.00;;;;;;;;;;5115503;28;20436;-69
2022/06/09 08:54:06;;;;;;;3.17;0.83;;;;;;;;;;5115118;28;20436;-70
2022/06/09 08:56:33;;;;;;;1.10;0.70;;;;;;;;;;5102041;28;20455;-70
2022/06/09 08:59:01;;;;;;;1.37;0.60;;;;;;;;;;5114648;28;20457;-70
2022/06/09 09:01:31;;;;;;;1.27;0.60;;;;;;;;;;5114837;28;20452;-70
2022/06/09 09:04:00;;;;;;;1.40;0.63;;;;;;;;;;5114700;28;20444;-70
2022/06/09 09:06:30;;;;;;;1.37;0.80;;;;;;;;;;5115271;28;20448;-70
2022/06/09 09:09:02;;;;;;;0.77;0.53;;;;;;;;;;5114458;28;20454;-69
2022/06/09 09:11:41;;;;;;;1.33;0.70;;;;;;;;;;5114712;28;20452;-69
2022/06/09 09:14:13;;;;;;;2.27;0.60;;;;;;;;;;5114471;28;20536;-70
2022/06/09 09:16:45;;;;;;;1.50;0.83;;;;;;;;;;5114930;28;20440;-70
2022/06/09 09:19:17;;;;;;;1.07;0.67;;;;;;;;;;5101533;28;20446;-70
2022/06/09 09:21:57;;;;;;;2.30;0.70;;;;;;;;;;5114104;28;20497;-70
2022/06/09 09:24:29;;;;;;;0.70;0.60;;;;;;;;;;5115004;28;20447;-70
2022/06/09 09:27:02;;;;;;;2.60;1.10;;;;;;;;;;5114057;28;20479;-70
2022/06/09 09:29:31;;;;;;;1.03;0.67;;;;;;;;;;5114509;28;20440;-70
2022/06/09 09:31:59;;;;;;;0.97;0.73;;;;;;;;;;5113464;28;20455;-70
2022/06/09 09:34:30;;;;;;;1.67;0.70;;;;;;;;;;5114370;28;20448;-70
2022/06/09 09:37:00;;;;;;;1.37;0.80;;;;;;;;;;5114104;28;20439;-70
2022/06/09 09:39:33;;;;;;;0.73;0.70;;;;;;;;;;5115018;28;20535;-70
2022/06/09 09:42:09;;;;;;;1.10;0.67;;;;;;;;;;5100737;28;20449;-69
2022/06/09 09:44:37;;;;;;;1.77;1.00;;;;;;;;;;5114241;28;20444;-70
2022/06/09 09:47:04;;;;;;;1.47;0.60;;;;;;;;;;5113862;28;20459;-70
2022/06/09 09:49:34;;;;;;;0.80;0.60;;;;;;;;;;5114372;28;20785;-70
2022/06/09 09:52:01;;;;;;;1.43;0.73;;;;;;;;;;5113282;28;20452;-70
2022/06/09 09:54:31;;;;;;;0.80;0.80;;;;;;;;;;5113106;28;20977;-70
2022/06/09 09:57:06;;;;;;;1.63;0.70;;;;;;;;;;5113845;28;20451;-70
2022/06/09 09:59:43;;;;;;;4.00;1.00;;;;;;;;;;5113890;28;20497;-70
2022/06/09 10:10:56;;;;;;;0.87;0.60;;;;;;;;;;5112832;28;20468;-70
2022/06/09 10:13:28;;;;;;;0.90;0.70;;;;;;;;;;5113676;28;20474;-70
2022/06/09 10:15:56;;;;;;;2.83;1.23;;;;;;;;;;5113233;28;20497;-70
2022/06/09 10:18:23;;;;;;;1.80;0.80;;;;;;;;;;5113630;28;20943;-70
2022/06/09 10:21:04;;;;;;;0.80;0.77;;;;;;;;;;5112461;28;20440;-70
2022/06/09 10:23:40;;;;;;;2.17;0.90;;;;;;;;;;5113497;28;20790;-69
2022/06/09 10:26:11;;;;;;;5.27;0.77;;;;;;;;;;5113233;28;20490;-69
2022/06/09 10:28:40;;;;;;;0.70;0.70;;;;;;;;;;5113752;28;20790;-69
2022/06/09 10:31:11;;;;;;;1.37;0.73;;;;;;;;;;5112600;28;20459;-69
2022/06/09 10:33:41;;;;;;;1.33;0.87;;;;;;;;;;5113448;28;20525;-69
2022/06/09 10:36:12;;;;;;;2.27;0.90;;;;;;;;;;5112665;28;20940;-69
2022/06/09 10:38:43;;;;;;;2.03;0.80;;;;;;;;;;5113236;28;20809;-70
2022/06/09 10:41:14;;;;;;;2.80;0.90;;;;;;;;;;5113269;28;20432;-69
2022/06/09 10:43:44;;;;;;;2.13;0.80;;;;;;;;;;5100447;28;20450;-69
2022/06/09 10:46:16;;;;;;;1.30;0.63;;;;;;;;;;5113393;28;20436;-71
2022/06/09 10:57:20;;;;;;;0.80;0.70;;;;;;;;;;5113246;28;20443;-70
2022/06/09 10:59:50;;;;;;;2.73;0.90;;;;;;;;;;5112609;28;20454;-69
2022/06/09 11:02:18;;;;;;;2.20;0.80;;;;;;;;;;5112413;28;20456;-71
2022/06/09 11:04:46;;;;;;;3.30;0.90;;;;;;;;;;5112303;28;20444;-71
2022/06/09 11:07:22;;;;;;;0.70;0.70;;;;;;;;;;5111787;28;20448;-70
2022/06/09 11:09:54;;;;;;;2.53;0.93;;;;;;;;;;5112043;28;20438;-71
2022/06/09 11:12:26;;;;;;;0.90;0.70;;;;;;;;;;5112320;28;20452;-71
2022/06/09 11:15:00;;;;;;;2.57;0.93;;;;;;;;;;5112296;28;20440;-70
2022/06/09 11:17:31;;;;;;;2.17;0.90;;;;;;;;;;5112562;28;20440;-70
2022/06/09 11:20:03;;;;;;;1.20;0.60;;;;;;;;;;5111531;28;20452;-71
2022/06/09 11:22:35;;;;;;;1.20;0.70;;;;;;;;;;5112765;28;20443;-71
2022/06/09 11:25:08;;;;;;;1.20;0.87;;;;;;;;;;5111984;28;20447;-71
2022/06/09 11:27:40;;;;;;;3.57;0.70;;;;;;;;;;5112571;28;20483;-70
2022/06/09 11:30:15;;;;;;;1.80;0.80;;;;;;;;;;5111564;28;20440;-69
2022/06/09 11:32:46;;;;;;;2.30;0.70;;;;;;;;;;5112490;28;20471;-69
2022/06/09 11:35:18;;;;;;;1.70;1.03;;;;;;;;;;5112415;28;20436;-69
2022/06/09 11:37:55;;;;;;;0.90;0.70;;;;;;;;;;5111995;28;20527;-70
2022/06/09 11:40:26;;;;;;;1.97;0.80;;;;;;;;;;5111963;28;20439;-70
2022/06/09 11:43:01;;;;;;;1.30;1.00;;;;;;;;;;5111742;28;20440;-69
2022/06/09 11:45:44;;;;;;;1.00;0.83;;;;;;;;;;5111901;28;20450;-70
2022/06/09 11:48:14;;;;;;;1.53;1.00;;;;;;;;;;5112063;28;20450;-69
2022/06/09 11:50:42;;;;;;;1.00;0.87;;;;;;;;;;5111839;28;20459;-70
2022/06/09 11:53:09;;;;;;;2.13;1.00;;;;;;;;;;5112213;28;20808;-70
2022/06/09 11:58:40;;;;;;;5.43;1.17;;;;;;;;;;5097751;28;20435;-70
2022/06/09 12:01:11;;;;;;;2.73;1.40;;;;;;;;;;5110817;28;20448;-70
2022/06/09 12:03:47;;;;;;;1.00;0.53;;;;;;;;;;5111670;28;20443;-70
2022/06/09 12:06:18;;;;;;;0.77;0.77;;;;;;;;;;5107080;28;20554;-70
2022/06/09 12:08:54;;;;;;;2.20;1.50;;;;;;;;;;5110844;28;20949;-70
2022/06/09 12:11:22;;;;;;;1.17;0.83;;;;;;;;;;5111286;28;20448;-70
2022/06/09 12:13:57;;;;;;;1.10;0.70;;;;;;;;;;5110907;28;20827;-70
2022/06/09 12:16:28;;;;;;;2.27;0.83;;;;;;;;;;5111493;28;20459;-70
2022/06/09 12:19:18;;;;;;;1.10;0.83;;;;;;;;;;5110367;28;20450;-70
2022/06/09 12:21:46;;;;;;;4.87;0.70;;;;;;;;;;5110584;28;20439;-70
2022/06/09 12:24:25;;;;;;;0.90;0.80;;;;;;;;;;5111586;28;20460;-70
2022/06/09 12:26:55;;;;;;;3.00;0.77;;;;;;;;;;5110851;28;20487;-70
2022/06/09 12:29:40;;;;;;;1.37;0.80;;;;;;;;;;5111294;28;20452;-70
2022/06/09 12:32:27;;;;;;;1.20;1.10;;;;;;;;;;5110705;28;20444;-70
2022/06/09 12:34:57;;;;;;;1.60;1.10;;;;;;;;;;5110639;28;20491;-70
2022/06/09 12:37:25;;;;;;;2.53;0.90;;;;;;;;;;5111686;28;20439;-70
2022/06/09 12:39:54;;;;;;;1.13;0.60;;;;;;;;;;5109955;28;20458;-70
2022/06/09 12:42:23;;;;;;;0.87;0.60;;;;;;;;;;5111040;28;20452;-70
2022/06/09 12:44:52;;;;;;;2.10;0.80;;;;;;;;;;5110627;28;20566;-70
2022/06/09 12:47:21;;;;;;;2.20;0.87;;;;;;;;;;5110870;28;20812;-70
2022/06/09 12:49:50;;;;;;;0.90;0.70;;;;;;;;;;5109953;28;20981;-70
2022/06/09 12:52:24;;;;;;;1.00;0.70;;;;;;;;;;5111356;28;20457;-70
2022/06/09 12:54:56;;;;;;;1.10;0.80;;;;;;;;;;5096957;28;20468;-70
2022/06/09 12:57:25;;;;;;;1.53;1.00;;;;;;;;;;5110932;28;20501;-70
2022/06/09 13:00:00;;;;;;;0.80;0.60;;;;;;;;;;5110331;28;20822;-70
2022/06/09 13:02:30;;;;;;;1.40;0.97;;;;;;;;;;5110998;28;20439;-70
2022/06/09 13:04:58;;;;;;;1.87;0.80;;;;;;;;;;5110264;28;20935;-70
2022/06/09 13:07:28;;;;;;;1.23;0.80;;;;;;;;;;5111096;28;20772;-70
2022/06/09 13:10:03;;;;;;;3.43;1.10;;;;;;;;;;5109874;28;20444;-70
2022/06/09 13:15:20;;;;;;;1.10;0.73;;;;;;;;;;5110787;28;20876;-70
2022/06/09 13:17:49;;;;;;;0.83;0.70;;;;;;;;;;5110606;28;20458;-70
2022/06/09 13:20:18;;;;;;;1.87;0.97;;;;;;;;;;5110625;28;20539;-70
2022/06/09 13:22:47;;;;;;;1.13;0.87;;;;;;;;;;5110147;28;20444;-70
2022/06/09 13:25:15;;;;;;;1.13;0.73;;;;;;;;;;5111105;28;20459;-70
2022/06/09 13:27:45;;;;;;;0.80;0.60;;;;;;;;;;5110662;28;20511;-70
2022/06/09 13:30:33;;;;;;;0.70;0.60;;;;;;;;;;5112511;28;20527;-70
2022/06/09 13:33:00;;;;;;;3.00;0.90;;;;;;;;;;5113680;28;20444;-70
2022/06/09 13:35:29;;;;;;;2.30;0.60;;;;;;;;;;5103181;28;20454;-69
2022/06/09 13:38:05;;;;;;;3.40;0.60;;;;;;;;;;5113996;28;20444;-70
2022/06/09 13:40:42;;;;;;;1.10;0.63;;;;;;;;;;5114108;28;20458;-70
2022/06/09 13:43:14;;;;;;;2.60;0.80;;;;;;;;;;5114404;28;20769;-69
2022/06/09 13:45:42;;;;;;;2.40;0.77;;;;;;;;;;5114859;28;20450;-70
2022/06/09 13:48:15;;;;;;;0.90;0.90;;;;;;;;;;5113772;28;20448;-70
2022/06/09 13:50:44;;;;;;;1.93;0.80;;;;;;;;;;5114365;28;20439;-70
2022/06/09 13:53:18;;;;;;;1.63;0.80;;;;;;;;;;5114158;28;21003;-70
2022/06/09 13:55:45;;;;;;;2.80;0.90;;;;;;;;;;5113377;28;20455;-70
2022/06/09 13:58:12;;;;;;;2.90;1.00;;;;;;;;;;5114193;28;20459;-70
2022/06/09 14:00:41;;;;;;;1.73;1.00;;;;;;;;;;5113901;28;20454;-70
2022/06/09 14:03:13;;;;;;;1.67;0.87;;;;;;;;;;5113320;28;20570;-70
2022/06/09 14:05:41;;;;;;;1.47;0.80;;;;;;;;;;5114284;28;20444;-70
2022/06/09 14:08:09;;;;;;;1.33;0.97;;;;;;;;;;5113318;28;20440;-69
2022/06/09 14:10:38;;;;;;;1.30;0.80;;;;;;;;;;5113341;28;20454;-69
2022/06/09 14:13:05;;;;;;;1.73;0.77;;;;;;;;;;5113592;28;20456;-69
2022/06/09 14:15:33;;;;;;;1.63;0.80;;;;;;;;;;5113787;28;20958;-69
2022/06/09 14:18:01;;;;;;;0.80;0.60;;;;;;;;;;5112844;28;20926;-69
2022/06/09 14:20:29;;;;;;;1.00;0.90;;;;;;;;;;5113058;28;20448;-69
2022/06/09 14:22:56;;;;;;;1.33;0.90;;;;;;;;;;5113303;28;20444;-69
2022/06/09 14:25:23;;;;;;;3.50;0.83;;;;;;;;;;5113246;28;20454;-69
2022/06/09 14:27:52;;;;;;;1.00;0.63;;;;;;;;;;5113323;28;20459;-69
2022/06/09 14:30:20;;;;;;;1.57;0.90;;;;;;;;;;5112794;28;20930;-70
2022/06/09 14:32:47;;;;;;;0.80;0.70;;;;;;;;;;5112888;28;20452;-70
2022/06/09 14:35:16;;;;;;;1.30;0.80;;;;;;;;;;5113444;28;20480;-70
2022/06/09 14:37:44;;;;;;;4.00;0.90;;;;;;;;;;5113873;28;20854;-70
2022/06/09 14:40:21;;;;;;;2.50;1.00;;;;;;;;;;5112901;28;20543;-70
2022/06/09 14:42:48;;;;;;;2.27;1.00;;;;;;;;;;5112443;28;20965;-70
2022/06/09 14:45:16;;;;;;;1.37;0.90;;;;;;;;;;5113446;28;20451;-69
2022/06/09 14:47:44;;;;;;;1.47;1.10;;;;;;;;;;5113156;28;20444;-70
2022/06/09 14:50:13;;;;;;;2.00;1.30;;;;;;;;;;5112796;28;21026;-69
2022/06/09 14:52:40;;;;;;;1.40;1.00;;;;;;;;;;5113340;28;20456;-69
2022/06/09 14:55:09;;;;;;;1.67;0.90;;;;;;;;;;5112307;28;20962;-69
2022/06/09 14:57:36;;;;;;;1.57;0.83;;;;;;;;;;5113079;28;20463;-70
2022/06/09 15:00:03;;;;;;;0.80;0.70;;;;;;;;;;5111766;28;20454;-70
2022/06/09 15:02:32;;;;;;;1.57;0.70;;;;;;;;;;5112793;28;20455;-70
2022/06/09 15:04:59;;;;;;;0.87;0.80;;;;;;;;;;5112342;28;20453;-70
2022/06/09 15:07:26;;;;;;;0.87;0.70;;;;;;;;;;5112792;28;20534;-69
2022/06/09 15:09:53;;;;;;;0.90;0.77;;;;;;;;;;5111603;28;20852;-68
2022/06/09 15:12:20;;;;;;;1.17;0.80;;;;;;;;;;5112718;28;20459;-71
2022/06/09 15:14:47;;;;;;;1.23;1.00;;;;;;;;;;5112167;28;20479;-69
2022/06/09 15:17:16;;;;;;;1.83;1.20;;;;;;;;;;5112512;28;20447;-69
2022/06/09 15:19:44;;;;;;;1.23;1.13;;;;;;;;;;5112109;28;20201;-69
2022/06/09 15:22:12;;;;;;;1.02;0.70;;;;;;;;;;5112751;28;20197;-69
2022/06/09 15:24:39;;;;;;;1.10;0.98;;;;;;;;;;5112699;28;20648;-69
2022/06/09 15:27:08;;;;;;;1.00;0.80;;;;;;;;;;5111357;28;20233;-69
2022/06/09 15:29:36;;;;;;;1.17;1.08;;;;;;;;;;5111832;28;20659;-69